Time;durP1;ratioP1;P1;durP2;ratioP2;P2;SDS_P1;SDS_P2;PMS_P1;PMS_P2;Temp;Humidity;BMP_temperature;BMP_pressure;BME280_temperature;BME280_humidity;BME280_pressure;Samples;Min_cycle;Max_cycle;Signal;HPM_P1;HPM_P2
2024/01/30 00:00:54;;;;;;;5.05;1.30;;;;;;;9.64;100.00;100837.56;4936005;29;20035;-94
2024/01/30 00:03:19;;;;;;;3.20;1.05;;;;;;;9.70;100.00;100842.41;4934628;29;20035;-94
2024/01/30 00:05:44;;;;;;;3.53;1.13;;;;;;;9.67;100.00;100842.56;4935895;29;20504;-94
2024/01/30 00:08:10;;;;;;;4.88;0.77;;;;;;;9.65;100.00;100849.53;4934813;29;20035;-93
2024/01/30 00:10:36;;;;;;;6.47;1.08;;;;;;;9.55;100.00;100849.13;4949848;29;20035;-95
2024/01/30 00:13:02;;;;;;;3.60;0.90;;;;;;;9.68;100.00;100849.41;4954789;28;20020;-93
2024/01/30 00:15:27;;;;;;;7.00;1.42;;;;;;;9.74;100.00;100856.84;4953549;29;20054;-93
2024/01/30 00:17:53;;;;;;;4.65;1.40;;;;;;;9.66;100.00;100846.06;4953787;29;20382;-94
2024/01/30 00:20:18;;;;;;;3.75;1.10;;;;;;;9.71;100.00;100851.84;4952637;29;20414;-94
2024/01/30 00:22:44;;;;;;;1.63;0.75;;;;;;;9.75;100.00;100866.22;4954626;29;20070;-95
2024/01/30 00:25:09;;;;;;;3.92;0.85;;;;;;;9.64;100.00;100866.75;4953523;29;20023;-94
2024/01/30 00:27:35;;;;;;;3.35;0.80;;;;;;;9.67;100.00;100868.34;4954769;28;20514;-94
2024/01/30 00:30:00;;;;;;;6.00;1.02;;;;;;;9.65;100.00;100865.00;4953549;29;20055;-94
2024/01/30 00:32:25;;;;;;;2.88;0.70;;;;;;;9.75;100.00;100871.38;4954643;28;20039;-94
2024/01/30 00:34:51;;;;;;;2.97;0.80;;;;;;;9.77;100.00;100873.91;4953280;29;20034;-94
2024/01/30 00:37:16;;;;;;;3.95;1.35;;;;;;;9.73;100.00;100872.38;4949527;29;20031;-95
2024/01/30 00:39:42;;;;;;;7.07;0.95;;;;;;;9.75;100.00;100880.88;4933681;29;20027;-95
2024/01/30 00:42:07;;;;;;;7.25;1.27;;;;;;;9.79;100.00;100867.78;4934323;29;20398;-96
2024/01/30 00:44:37;;;;;;;5.85;1.90;;;;;;;9.82;100.00;100872.78;4935757;29;20063;-94
2024/01/30 00:47:02;;;;;;;5.75;1.00;;;;;;;9.81;100.00;100863.38;4933973;29;20024;-95
2024/01/30 00:49:28;;;;;;;3.70;1.55;;;;;;;9.80;100.00;100874.63;4934121;29;20028;-94
2024/01/30 00:51:53;;;;;;;5.55;0.98;;;;;;;9.76;100.00;100878.22;4934117;29;20071;-95
2024/01/30 00:54:19;;;;;;;3.17;1.10;;;;;;;9.77;100.00;100877.31;4935260;29;20453;-94
2024/01/30 00:56:44;;;;;;;7.90;0.90;;;;;;;9.65;100.00;100873.56;4935144;29;20035;-94
2024/01/30 00:59:10;;;;;;;6.25;0.95;;;;;;;9.73;100.00;100874.94;4935389;29;20042;-94
2024/01/30 01:01:36;;;;;;;6.18;1.17;;;;;;;9.78;100.00;100893.63;4935575;29;20035;-95
2024/01/30 01:04:02;;;;;;;2.60;1.40;;;;;;;9.88;100.00;100894.03;4935082;29;20027;-95
2024/01/30 01:06:27;;;;;;;4.70;0.90;;;;;;;9.79;100.00;100897.88;4934243;29;20020;-95
2024/01/30 01:08:53;;;;;;;4.82;0.73;;;;;;;9.78;100.00;100891.88;4933919;29;20066;-95
2024/01/30 01:11:18;;;;;;;3.00;0.90;;;;;;;9.73;100.00;100893.00;4934709;29;20110;-94
2024/01/30 01:13:44;;;;;;;2.75;0.30;;;;;;;9.64;100.00;100895.09;4934165;29;20459;-94
2024/01/30 01:16:09;;;;;;;2.83;0.30;;;;;;;9.63;100.00;100900.31;4934312;29;20028;-95
2024/01/30 01:18:34;;;;;;;1.90;0.30;;;;;;;9.57;100.00;100900.59;4934634;29;20103;-96
2024/01/30 01:21:00;;;;;;;1.33;1.23;;;;;;;9.52;100.00;100911.13;5055496;23;20046;-94
2024/01/30 01:23:26;;;;;;;2.25;0.50;;;;;;;9.28;100.00;100904.50;4954062;29;20043;-95
2024/01/30 01:25:51;;;;;;;2.22;0.80;;;;;;;9.16;100.00;100908.44;4961531;29;20027;-93
2024/01/30 01:28:17;;;;;;;3.78;0.85;;;;;;;8.94;100.00;100919.69;4955222;28;20031;-94
2024/01/30 01:30:42;;;;;;;4.53;0.80;;;;;;;8.94;100.00;100909.38;4954206;29;20557;-95
2024/01/30 01:33:09;;;;;;;4.47;0.70;;;;;;;8.91;100.00;100924.97;4955736;29;20114;-96
2024/01/30 01:35:34;;;;;;;4.05;1.20;;;;;;;8.61;100.00;100927.09;4962273;28;20176;-94
2024/01/30 01:38:00;;;;;;;4.35;0.95;;;;;;;8.55;100.00;100928.16;4973751;28;20042;-96
2024/01/30 01:40:27;;;;;;;6.90;1.55;;;;;;;8.62;100.00;100923.63;4975358;28;20027;-96
2024/01/30 01:42:54;;;;;;;6.30;2.75;;;;;;;8.50;100.00;100929.25;4959711;28;20186;-94
2024/01/30 01:45:20;;;;;;;9.27;3.35;;;;;;;8.38;100.00;100925.41;4975620;28;20189;-95
2024/01/30 01:47:50;;;;;;;5.75;3.45;;;;;;;8.38;100.00;100952.88;4978681;28;20038;-94
2024/01/30 01:50:19;;;;;;;7.32;4.03;;;;;;;8.37;100.00;100939.19;4973831;28;20030;-94
2024/01/30 01:52:47;;;;;;;7.72;3.60;;;;;;;8.35;100.00;100938.41;4974887;28;20389;-95
2024/01/30 01:55:13;;;;;;;6.40;3.72;;;;;;;8.39;100.00;100937.41;4978554;28;20106;-95
2024/01/30 01:57:39;;;;;;;7.28;3.80;;;;;;;8.06;100.00;100953.25;4982718;28;20035;-94
2024/01/30 02:00:07;;;;;;;8.55;3.72;;;;;;;8.15;100.00;100954.63;4982350;28;20033;-96
2024/01/30 02:02:37;;;;;;;6.85;4.38;;;;;;;8.05;100.00;100958.47;4996442;28;20086;-96
2024/01/30 02:05:06;;;;;;;11.25;4.28;;;;;;;8.05;100.00;100977.28;4994194;28;20082;-94
2024/01/30 02:07:32;;;;;;;9.05;4.47;;;;;;;8.01;100.00;100968.00;4979934;28;20046;-96
2024/01/30 02:09:57;;;;;;;7.05;3.80;;;;;;;8.05;100.00;100972.16;4980072;28;20045;-95
2024/01/30 02:12:25;;;;;;;10.27;3.33;;;;;;;8.03;100.00;100966.22;4979244;28;20022;-96
2024/01/30 02:14:51;;;;;;;9.52;3.50;;;;;;;7.89;100.00;100960.75;4985203;28;20043;-96
2024/01/30 02:17:20;;;;;;;6.57;2.70;;;;;;;7.84;100.00;100972.97;4985254;28;20026;-96
2024/01/30 02:19:46;;;;;;;7.03;2.53;;;;;;;7.93;100.00;100972.63;4993352;28;20043;-96
2024/01/30 02:22:13;;;;;;;4.60;2.10;;;;;;;7.97;100.00;100976.72;4979018;28;20031;-96
2024/01/30 02:24:38;;;;;;;7.07;2.50;;;;;;;7.89;100.00;100994.19;4977024;28;20086;-95
2024/01/30 02:27:04;;;;;;;4.35;2.20;;;;;;;7.84;100.00;100996.09;4976486;28;20026;-95
2024/01/30 02:29:29;;;;;;;3.03;2.25;;;;;;;7.81;100.00;101012.47;4978404;28;20033;-95
2024/01/30 02:31:54;;;;;;;6.97;2.85;;;;;;;7.81;100.00;101016.75;4976128;28;20051;-95
2024/01/30 02:34:21;;;;;;;8.40;2.72;;;;;;;7.84;100.00;101014.06;4976956;28;20394;-94
2024/01/30 02:36:46;;;;;;;3.83;1.90;;;;;;;7.85;100.00;101016.59;4976176;28;20532;-95
2024/01/30 02:39:11;;;;;;;4.22;1.95;;;;;;;7.86;100.00;101014.88;4976211;28;20031;-95
2024/01/30 02:41:37;;;;;;;5.72;2.00;;;;;;;7.77;100.00;101015.19;4975615;28;20495;-95
2024/01/30 02:44:03;;;;;;;7.63;1.50;;;;;;;7.75;100.00;101014.41;4975876;28;20026;-94
2024/01/30 02:46:29;;;;;;;6.05;1.42;;;;;;;7.70;100.00;101037.69;4975570;28;20092;-95
2024/01/30 02:48:54;;;;;;;5.85;1.48;;;;;;;7.92;100.00;101045.47;4975781;28;20058;-95
2024/01/30 02:51:20;;;;;;;2.35;1.08;;;;;;;7.65;100.00;101043.00;4975678;28;20394;-93
2024/01/30 02:53:45;;;;;;;6.00;1.00;;;;;;;7.59;100.00;101038.09;4975817;28;20027;-95
2024/01/30 02:56:11;;;;;;;4.78;0.90;;;;;;;7.66;100.00;101049.81;4976490;28;20061;-95
2024/01/30 02:58:37;;;;;;;3.83;1.10;;;;;;;7.69;100.00;101054.84;4977154;28;20111;-96
2024/01/30 03:01:03;;;;;;;2.28;1.10;;;;;;;7.50;100.00;101064.09;4975962;28;20042;-94
2024/01/30 03:03:28;;;;;;;1.63;0.60;;;;;;;7.43;100.00;101054.91;4975411;28;20081;-96
2024/01/30 03:05:54;;;;;;;3.38;0.55;;;;;;;7.65;100.00;101060.97;4976536;28;20061;-94
2024/01/30 03:08:19;;;;;;;1.25;0.57;;;;;;;7.79;100.00;101063.06;4976904;28;20026;-94
2024/01/30 03:10:45;;;;;;;0.93;0.38;;;;;;;7.64;100.00;101067.03;4976390;28;20031;-94
2024/01/30 03:13:10;;;;;;;0.73;0.40;;;;;;;7.63;100.00;101067.06;4975466;28;20026;-93
2024/01/30 03:15:36;;;;;;;0.55;0.35;;;;;;;7.68;100.00;101058.31;4975320;28;20038;-95
2024/01/30 03:18:03;;;;;;;1.85;0.55;;;;;;;7.63;100.00;101067.94;4976647;28;20027;-94
2024/01/30 03:20:29;;;;;;;1.75;0.63;;;;;;;7.53;100.00;101079.38;4975578;28;20076;-94
2024/01/30 03:22:55;;;;;;;1.95;0.68;;;;;;;7.59;100.00;101099.75;4974416;28;20121;-95
2024/01/30 03:25:20;;;;;;;0.90;0.45;;;;;;;7.59;100.00;101089.47;4974550;28;20030;-96
2024/01/30 03:27:46;;;;;;;2.80;0.50;;;;;;;7.56;100.00;101105.00;4974585;28;20023;-96
2024/01/30 03:30:11;;;;;;;1.52;0.50;;;;;;;7.55;100.00;101113.56;4974970;28;20031;-95
2024/01/30 03:32:37;;;;;;;0.80;0.40;;;;;;;7.61;100.00;101122.81;4973343;28;20462;-95
2024/01/30 03:35:02;;;;;;;0.73;0.50;;;;;;;7.58;100.00;101118.59;4973669;28;20041;-95
2024/01/30 03:37:28;;;;;;;0.82;0.63;;;;;;;7.52;100.00;101123.13;4974043;28;20022;-93
2024/01/30 03:39:53;;;;;;;1.77;0.60;;;;;;;7.49;100.00;101130.03;4974048;28;20393;-94
2024/01/30 03:42:19;;;;;;;2.72;0.63;;;;;;;7.56;100.00;101138.38;4969971;28;20470;-95
2024/01/30 03:44:44;;;;;;;2.85;0.88;;;;;;;7.59;100.00;101148.56;4955876;29;20026;-94
2024/01/30 03:47:09;;;;;;;0.50;0.25;;;;;;;7.59;100.00;101148.56;4964881;28;20027;-95
2024/01/30 03:49:35;;;;;;;1.75;0.35;;;;;;;7.43;100.00;101134.53;4973939;28;20033;-95
2024/01/30 03:52:00;;;;;;;0.93;0.30;;;;;;;7.38;100.00;101126.16;4974240;28;20035;-95
2024/01/30 03:54:25;;;;;;;3.50;0.50;;;;;;;7.44;100.00;101141.38;4973929;28;20029;-95
2024/01/30 03:56:51;;;;;;;2.10;0.32;;;;;;;7.43;100.00;101152.50;4975012;28;20441;-95
2024/01/30 03:59:17;;;;;;;1.77;0.40;;;;;;;7.47;100.00;101157.50;4963725;28;20031;-96
2024/01/30 04:01:43;;;;;;;3.65;0.30;;;;;;;7.47;100.00;101144.66;4960432;28;20535;-92
2024/01/30 04:04:08;;;;;;;3.15;0.30;;;;;;;7.51;100.00;101153.13;4973113;28;20038;-95
2024/01/30 04:06:33;;;;;;;3.05;0.40;;;;;;;7.48;100.00;101148.06;4973391;28;20030;-92
2024/01/30 04:08:59;;;;;;;0.68;0.38;;;;;;;7.56;100.00;101156.38;4973184;28;20069;-94
2024/01/30 04:11:25;;;;;;;1.38;0.40;;;;;;;7.53;100.00;101151.31;4973651;28;20027;-95
2024/01/30 04:13:51;;;;;;;2.83;0.40;;;;;;;7.55;100.00;101158.97;4973272;28;20109;-94
2024/01/30 04:16:23;;;;;;;2.05;0.50;;;;;;;7.55;100.00;101172.66;4972778;28;20428;-94
2024/01/30 04:18:49;;;;;;;2.35;0.55;;;;;;;7.46;100.00;101171.25;4973239;28;20042;-94
2024/01/30 04:21:14;;;;;;;1.88;0.50;;;;;;;7.45;100.00;101173.84;4973379;28;20511;-94
2024/01/30 04:23:40;;;;;;;3.88;0.70;;;;;;;7.45;100.00;101179.00;4973154;28;20398;-94
2024/01/30 04:26:06;;;;;;;0.82;0.30;;;;;;;7.46;100.00;101183.22;4973411;28;20031;-94
2024/01/30 04:28:31;;;;;;;4.85;0.68;;;;;;;7.53;100.00;101184.72;4972663;28;20041;-94
2024/01/30 04:30:56;;;;;;;2.83;0.40;;;;;;;7.47;100.00;101187.50;4973239;28;20499;-94
2024/01/30 04:33:22;;;;;;;4.47;0.60;;;;;;;7.55;100.00;101194.94;4973149;28;20065;-94
2024/01/30 04:35:47;;;;;;;4.10;0.68;;;;;;;7.41;100.00;101203.09;4972941;28;20073;-93
2024/01/30 04:38:14;;;;;;;3.58;0.57;;;;;;;7.43;100.00;101206.44;4973130;28;20041;-94
2024/01/30 04:40:39;;;;;;;0.88;0.45;;;;;;;7.46;100.00;101214.03;4974024;28;20031;-95
2024/01/30 04:43:05;;;;;;;1.42;0.40;;;;;;;7.59;100.00;101223.06;4972757;28;20030;-93
2024/01/30 04:45:30;;;;;;;1.85;0.50;;;;;;;7.55;100.00;101218.06;4972677;28;20031;-93
2024/01/30 04:47:56;;;;;;;6.32;0.70;;;;;;;7.46;100.00;101221.75;4972635;28;20073;-93
2024/01/30 04:50:21;;;;;;;1.70;0.60;;;;;;;7.41;100.00;101233.91;4973884;28;20087;-94
2024/01/30 04:52:46;;;;;;;1.65;0.47;;;;;;;7.57;100.00;101244.53;4972488;28;20077;-94
2024/01/30 04:55:12;;;;;;;1.80;0.43;;;;;;;7.61;100.00;101248.72;4972509;28;20031;-94
2024/01/30 04:57:37;;;;;;;3.40;0.77;;;;;;;7.55;100.00;101246.31;4972251;28;20050;-95
2024/01/30 05:00:03;;;;;;;2.50;1.33;;;;;;;7.50;100.00;101254.16;4972646;28;20058;-95
2024/01/30 05:02:28;;;;;;;5.57;0.60;;;;;;;7.48;100.00;101236.22;4972313;28;20393;-95
2024/01/30 05:04:54;;;;;;;2.17;0.70;;;;;;;7.44;100.00;101254.38;4972093;28;20034;-95
2024/01/30 05:07:19;;;;;;;1.35;0.70;;;;;;;7.33;100.00;101251.28;4972813;28;20022;-94
2024/01/30 05:09:44;;;;;;;3.35;0.77;;;;;;;7.44;100.00;101259.50;4973861;28;20042;-95
2024/01/30 05:12:10;;;;;;;6.05;0.65;;;;;;;7.38;100.00;101281.06;4972206;28;20026;-95
2024/01/30 05:14:35;;;;;;;4.95;0.80;;;;;;;7.25;100.00;101288.31;4973607;28;20034;-94
2024/01/30 05:17:02;;;;;;;4.15;0.82;;;;;;;7.37;100.00;101289.69;4973752;28;20038;-94
2024/01/30 05:19:28;;;;;;;6.25;0.80;;;;;;;7.27;100.00;101294.25;4972292;28;20498;-94
2024/01/30 05:21:53;;;;;;;3.28;1.08;;;;;;;7.27;100.00;101304.53;4972625;28;20063;-94
2024/01/30 05:24:19;;;;;;;8.30;1.23;;;;;;;7.30;100.00;101298.44;4973483;28;20031;-94
2024/01/30 05:26:44;;;;;;;5.47;1.00;;;;;;;7.42;100.00;101292.94;4974202;28;20015;-94
2024/01/30 05:29:09;;;;;;;2.47;0.85;;;;;;;7.34;100.00;101294.03;4976138;28;20061;-95
2024/01/30 05:31:35;;;;;;;3.70;0.80;;;;;;;7.36;100.00;101308.53;4976410;28;20100;-94
2024/01/30 05:34:01;;;;;;;4.05;0.70;;;;;;;7.37;100.00;101311.94;4976237;28;20026;-94
2024/01/30 05:36:26;;;;;;;2.78;0.50;;;;;;;7.35;100.00;101326.56;4977322;28;20031;-94
2024/01/30 05:38:51;;;;;;;3.83;1.95;;;;;;;7.29;100.00;101333.56;4975979;28;20031;-94
2024/01/30 05:41:17;;;;;;;5.47;0.90;;;;;;;7.26;100.00;101346.47;4977311;28;20089;-94
2024/01/30 05:43:42;;;;;;;2.33;0.50;;;;;;;7.26;100.00;101338.75;4976165;28;20023;-94
2024/01/30 05:46:08;;;;;;;2.83;0.63;;;;;;;7.31;100.00;101340.38;4976072;28;20469;-94
2024/01/30 05:48:35;;;;;;;1.00;0.60;;;;;;;7.23;100.00;101331.16;4976362;28;20034;-94
2024/01/30 05:51:00;;;;;;;3.05;1.08;;;;;;;7.25;100.00;101349.94;4975931;28;20027;-93
2024/01/30 05:53:26;;;;;;;3.95;1.20;;;;;;;7.14;100.00;101346.81;4975790;28;20034;-93
2024/01/30 05:55:51;;;;;;;3.55;1.00;;;;;;;7.22;100.00;101356.91;4975911;28;20027;-93
2024/01/30 05:58:16;;;;;;;4.43;1.00;;;;;;;7.04;100.00;101358.25;4975748;28;20034;-94
2024/01/30 06:00:42;;;;;;;7.43;1.63;;;;;;;7.14;100.00;101359.66;4975766;28;20034;-93
2024/01/30 06:03:07;;;;;;;7.40;0.90;;;;;;;7.09;100.00;101364.09;4975534;28;20031;-94
2024/01/30 06:05:33;;;;;;;3.80;0.85;;;;;;;7.08;100.00;101375.25;4975416;28;20030;-93
2024/01/30 06:07:58;;;;;;;7.32;1.05;;;;;;;7.14;100.00;101375.06;4976946;28;20485;-94
2024/01/30 06:10:23;;;;;;;7.10;1.27;;;;;;;7.03;100.00;101372.81;4975799;28;20023;-93
2024/01/30 06:12:49;;;;;;;8.07;1.10;;;;;;;7.11;100.00;101377.72;4975483;28;20473;-93
2024/01/30 06:15:14;;;;;;;2.72;1.15;;;;;;;7.17;100.00;101380.13;4975652;28;20026;-93
2024/01/30 06:17:40;;;;;;;4.43;1.13;;;;;;;7.18;100.00;101386.94;4976736;28;20037;-93
2024/01/30 06:20:06;;;;;;;6.05;1.27;;;;;;;7.10;100.00;101399.16;4975344;28;20030;-93
2024/01/30 06:22:31;;;;;;;6.05;1.90;;;;;;;7.10;100.00;101409.44;4976581;28;20041;-94
2024/01/30 06:24:56;;;;;;;8.70;2.30;;;;;;;7.13;100.00;101419.59;4975380;28;20030;-95
2024/01/30 06:27:22;;;;;;;10.70;2.25;;;;;;;7.16;100.00;101416.94;4974952;28;20031;-93
2024/01/30 06:29:47;;;;;;;5.50;2.40;;;;;;;7.07;100.00;101414.63;4974678;28;20474;-93
2024/01/30 06:32:13;;;;;;;10.18;2.88;;;;;;;7.05;100.00;101421.56;4975731;28;20548;-94
2024/01/30 06:34:39;;;;;;;12.77;3.17;;;;;;;7.04;100.00;101425.81;4975292;28;20397;-94
2024/01/30 06:37:05;;;;;;;12.43;3.30;;;;;;;6.95;100.00;101432.91;4974867;28;20059;-93
2024/01/30 06:39:31;;;;;;;8.32;3.42;;;;;;;7.01;100.00;101425.91;4974460;28;20062;-94
2024/01/30 06:41:56;;;;;;;13.30;3.75;;;;;;;7.08;100.00;101430.00;4976254;28;20081;-95
2024/01/30 06:44:21;;;;;;;10.68;3.17;;;;;;;7.11;100.00;101435.94;4975372;28;20033;-93
2024/01/30 06:46:47;;;;;;;16.73;3.50;;;;;;;7.05;100.00;101439.53;4975133;28;20496;-94
2024/01/30 06:49:12;;;;;;;15.88;3.85;;;;;;;7.13;100.00;101454.72;4975027;28;20035;-94
2024/01/30 06:51:38;;;;;;;15.18;4.90;;;;;;;7.03;100.00;101448.97;4974879;28;20410;-92
2024/01/30 06:54:03;;;;;;;16.73;4.65;;;;;;;6.97;100.00;101459.38;4976498;28;20426;-93
2024/01/30 06:56:29;;;;;;;19.90;3.97;;;;;;;7.12;100.00;101459.00;4976071;28;20587;-95
2024/01/30 06:58:55;;;;;;;22.52;4.50;;;;;;;7.00;100.00;101465.31;4975406;28;20023;-94
2024/01/30 07:01:20;;;;;;;21.58;4.28;;;;;;;6.95;100.00;101468.84;4975097;28;20121;-94
2024/01/30 07:03:46;;;;;;;21.77;5.53;;;;;;;7.01;100.00;101469.53;4975039;28;20389;-95
2024/01/30 07:06:12;;;;;;;25.75;6.80;;;;;;;6.97;100.00;101474.78;4975876;28;20023;-93
2024/01/30 07:08:39;;;;;;;18.58;6.10;;;;;;;6.88;100.00;101472.44;4975161;28;20047;-92
2024/01/30 07:11:06;;;;;;;16.92;5.82;;;;;;;6.92;100.00;101479.19;4975565;28;20073;-92
2024/01/30 07:13:31;;;;;;;16.33;5.65;;;;;;;6.80;100.00;101483.78;4975356;28;20438;-93
2024/01/30 07:15:57;;;;;;;16.70;4.60;;;;;;;6.86;100.00;101478.47;4975211;28;20130;-92
2024/01/30 07:18:22;;;;;;;24.48;4.50;;;;;;;6.79;100.00;101482.06;4975096;28;20038;-92
2024/01/30 07:20:49;;;;;;;24.33;5.30;;;;;;;6.84;100.00;101485.38;4956064;28;20036;-92
2024/01/30 07:23:17;;;;;;;46.90;8.70;;;;;;;6.86;100.00;101496.44;4954734;29;20090;-93
2024/01/30 07:25:43;;;;;;;20.73;7.03;;;;;;;6.88;100.00;101504.13;4960278;28;20131;-94
2024/01/30 07:28:12;;;;;;;17.52;4.70;;;;;;;6.86;100.00;101504.16;4973781;28;20034;-93
2024/01/30 07:30:38;;;;;;;16.88;4.25;;;;;;;6.96;100.00;101519.31;4975052;28;20030;-92
2024/01/30 07:33:04;;;;;;;17.23;5.32;;;;;;;6.75;100.00;101516.38;4975480;28;20073;-93
2024/01/30 07:35:29;;;;;;;22.27;5.65;;;;;;;6.85;100.00;101523.00;4974923;28;20032;-93
2024/01/30 07:37:55;;;;;;;14.50;4.70;;;;;;;6.99;100.00;101532.06;4974911;28;20473;-92
2024/01/30 07:40:20;;;;;;;20.08;5.35;;;;;;;6.81;100.00;101539.34;4974956;28;20113;-92
2024/01/30 07:42:46;;;;;;;22.33;5.00;;;;;;;6.84;100.00;101544.38;4974939;28;20058;-92
2024/01/30 07:45:11;;;;;;;30.63;5.93;;;;;;;6.83;100.00;101552.16;4974432;28;20035;-93
2024/01/30 07:47:36;;;;;;;18.67;5.60;;;;;;;6.89;100.00;101554.53;4974881;28;20540;-94
2024/01/30 07:50:02;;;;;;;17.02;4.95;;;;;;;6.92;100.00;101551.06;4973731;28;20059;-93
2024/01/30 07:52:27;;;;;;;17.42;4.97;;;;;;;6.77;100.00;101547.97;4973574;28;20019;-93
2024/01/30 07:54:52;;;;;;;25.60;5.40;;;;;;;6.91;100.00;101554.53;4973499;28;20030;-93
2024/01/30 07:57:18;;;;;;;15.35;5.13;;;;;;;6.95;100.00;101548.41;4974320;28;20521;-94
2024/01/30 07:59:44;;;;;;;15.80;4.95;;;;;;;6.95;100.00;101549.28;4974125;28;20504;-93
2024/01/30 08:02:13;;;;;;;21.10;5.00;;;;;;;7.01;100.00;101567.09;4973519;28;20026;-93
2024/01/30 08:04:39;;;;;;;14.10;4.18;;;;;;;6.95;100.00;101563.81;4973493;28;20026;-93
2024/01/30 08:07:04;;;;;;;21.95;4.35;;;;;;;6.96;100.00;101575.78;4972726;28;20077;-93
2024/01/30 08:09:29;;;;;;;13.18;4.80;;;;;;;6.93;100.00;101576.69;4974108;28;20031;-93
2024/01/30 08:11:55;;;;;;;12.73;3.65;;;;;;;7.04;100.00;101579.00;4974389;28;20473;-93
2024/01/30 08:14:20;;;;;;;18.77;4.50;;;;;;;7.01;100.00;101584.22;4972823;28;20474;-93
2024/01/30 08:16:45;;;;;;;17.35;4.20;;;;;;;7.02;100.00;101585.88;4972626;28;20034;-93
2024/01/30 08:19:11;;;;;;;24.35;3.85;;;;;;;6.96;100.00;101581.75;4974088;28;20026;-92
2024/01/30 08:21:36;;;;;;;15.63;6.10;;;;;;;6.95;100.00;101584.34;4973531;28;20481;-92
2024/01/30 08:24:04;;;;;;;15.48;4.00;;;;;;;6.95;100.00;101574.06;4973916;28;20037;-94
2024/01/30 08:26:29;;;;;;;14.55;3.35;;;;;;;6.84;100.00;101577.75;4972764;28;20030;-90
2024/01/30 08:28:55;;;;;;;15.85;3.33;;;;;;;6.98;100.00;101594.56;4975538;28;20030;-93
2024/01/30 08:31:20;;;;;;;16.95;4.07;;;;;;;7.04;100.00;101597.81;4978270;28;20437;-94
2024/01/30 08:33:45;;;;;;;20.63;3.35;;;;;;;6.88;100.00;101590.50;4969810;28;20035;-94
2024/01/30 08:36:11;;;;;;;11.13;3.40;;;;;;;7.12;100.00;101595.06;4964074;28;20486;-88
2024/01/30 08:38:36;;;;;;;18.33;4.00;;;;;;;7.10;100.00;101601.97;4954106;28;20027;-92
2024/01/30 08:41:02;;;;;;;13.80;3.40;;;;;;;7.12;100.00;101597.63;4967013;28;20023;-92
2024/01/30 08:43:28;;;;;;;17.85;3.42;;;;;;;6.89;100.00;101603.31;4971616;28;20039;-92
2024/01/30 08:45:53;;;;;;;17.23;4.18;;;;;;;6.90;100.00;101599.88;4973370;28;20029;-91
2024/01/30 08:48:19;;;;;;;34.10;7.20;;;;;;;6.64;100.00;101610.72;4973526;28;20069;-93
2024/01/30 08:50:44;;;;;;;18.85;3.60;;;;;;;6.69;100.00;101624.28;4973794;28;20038;-92
2024/01/30 08:53:09;;;;;;;20.42;3.95;;;;;;;6.35;100.00;101619.88;4973625;28;20090;-93
2024/01/30 08:55:35;;;;;;;16.92;3.67;;;;;;;6.54;100.00;101622.06;4972278;28;20117;-92
2024/01/30 08:58:00;;;;;;;19.58;3.88;;;;;;;6.63;100.00;101640.69;4972934;28;20023;-93
2024/01/30 09:00:26;;;;;;;18.48;3.42;;;;;;;6.72;100.00;101644.75;4971927;28;20058;-93
2024/01/30 09:02:51;;;;;;;17.33;4.28;;;;;;;6.92;100.00;101646.03;4973347;28;20031;-94
2024/01/30 09:05:17;;;;;;;11.85;2.85;;;;;;;6.69;100.00;101649.94;4971621;28;20597;-91
2024/01/30 09:07:42;;;;;;;12.88;3.20;;;;;;;6.76;100.00;101659.22;4971705;28;20122;-92
2024/01/30 09:10:08;;;;;;;15.90;4.00;;;;;;;7.16;100.00;101655.72;4973315;28;20049;-91
2024/01/30 09:12:33;;;;;;;17.60;3.13;;;;;;;7.14;100.00;101662.59;4973049;28;20039;-94
2024/01/30 09:14:59;;;;;;;11.18;2.85;;;;;;;7.20;100.00;101666.78;4971059;28;20059;-92
2024/01/30 09:17:25;;;;;;;17.38;3.03;;;;;;;7.07;100.00;101682.47;4967111;28;20429;-93
2024/01/30 09:19:50;;;;;;;10.95;3.22;;;;;;;7.44;100.00;101675.63;4967320;28;20039;-91
2024/01/30 09:22:15;;;;;;;17.23;3.45;;;;;;;7.58;100.00;101682.97;4953540;29;20042;-92
2024/01/30 09:24:41;;;;;;;17.80;4.35;;;;;;;7.77;100.00;101698.78;4965262;28;20493;-91
2024/01/30 09:27:06;;;;;;;13.75;3.58;;;;;;;7.81;100.00;101684.97;4971841;28;20114;-92
2024/01/30 09:29:34;;;;;;;19.40;3.13;;;;;;;7.77;100.00;101686.75;4972817;28;20045;-91
2024/01/30 09:31:59;;;;;;;15.50;2.97;;;;;;;7.59;100.00;101693.22;4965811;28;20019;-92
2024/01/30 09:34:25;;;;;;;13.88;3.50;;;;;;;7.66;100.00;101702.47;4955070;28;20635;-91
2024/01/30 09:36:50;;;;;;;21.33;3.22;;;;;;;7.58;100.00;101708.66;4966492;28;20452;-91
2024/01/30 09:39:16;;;;;;;22.80;4.95;;;;;;;7.51;100.00;101708.00;4972928;28;20156;-93
2024/01/30 09:41:53;;;;;;;14.20;2.75;;;;;;;7.60;100.00;101717.19;4972024;28;20019;-91
2024/01/30 09:44:20;;;;;;;15.35;3.33;;;;;;;7.59;100.00;101721.47;4972687;28;20493;-90
2024/01/30 09:46:50;;;;;;;13.00;2.90;;;;;;;7.52;100.00;101725.06;4970760;28;20026;-91
2024/01/30 09:49:17;;;;;;;18.30;3.45;;;;;;;7.39;100.00;101739.06;4956227;28;20078;-91
2024/01/30 09:51:45;;;;;;;12.30;3.10;;;;;;;7.43;100.00;101746.69;4953543;28;20027;-91
2024/01/30 09:54:15;;;;;;;13.20;3.00;;;;;;;7.43;100.00;101756.94;4953224;28;20039;-90
2024/01/30 09:56:40;;;;;;;9.95;2.55;;;;;;;7.43;100.00;101761.25;4951165;29;20028;-90
2024/01/30 09:59:06;;;;;;;14.13;3.97;;;;;;;7.55;100.00;101760.97;4953477;29;20027;-91
2024/01/30 10:01:32;;;;;;;20.10;3.33;;;;;;;7.41;100.00;101758.72;4953184;28;20031;-91
2024/01/30 10:03:57;;;;;;;8.52;2.33;;;;;;;7.55;100.00;101766.09;4953252;28;20023;-92
2024/01/30 10:06:24;;;;;;;10.13;3.47;;;;;;;7.49;100.00;101776.53;4953046;28;20034;-91
2024/01/30 10:08:50;;;;;;;10.48;2.70;;;;;;;7.51;100.00;101779.91;4951809;29;20035;-92
2024/01/30 10:11:15;;;;;;;7.70;2.35;;;;;;;7.55;100.00;101778.94;4954556;28;20032;-91
2024/01/30 10:13:41;;;;;;;11.65;2.25;;;;;;;7.67;100.00;101791.50;4972953;28;20114;-90
2024/01/30 10:16:06;;;;;;;8.77;2.40;;;;;;;7.51;100.00;101792.75;4976453;28;20030;-94
2024/01/30 10:18:32;;;;;;;12.82;2.58;;;;;;;7.49;100.00;101797.09;4975414;28;20035;-90
2024/01/30 10:20:58;;;;;;;12.30;4.55;;;;;;;7.62;100.00;101802.78;4976000;28;20486;-92
2024/01/30 10:23:23;;;;;;;12.18;2.65;;;;;;;7.57;100.00;101810.59;4975114;28;20026;-91
2024/01/30 10:25:51;;;;;;;10.50;2.90;;;;;;;7.57;100.00;101820.88;4964421;28;20034;-93
2024/01/30 10:28:16;;;;;;;13.02;2.63;;;;;;;7.64;100.00;101827.56;4956670;28;20027;-91
2024/01/30 10:30:41;;;;;;;12.40;2.72;;;;;;;7.61;100.00;101827.63;4973924;28;20477;-90
2024/01/30 10:33:07;;;;;;;16.48;3.75;;;;;;;7.67;100.00;101837.75;4975799;28;20041;-93
2024/01/30 10:35:33;;;;;;;10.95;2.95;;;;;;;7.59;100.00;101844.81;4974080;28;20030;-91
2024/01/30 10:37:59;;;;;;;13.57;3.40;;;;;;;7.71;100.00;101844.53;4975800;28;20027;-91
2024/01/30 10:40:28;;;;;;;11.50;2.70;;;;;;;7.85;100.00;101853.63;4976361;28;20481;-95
2024/01/30 10:42:55;;;;;;;13.30;2.72;;;;;;;7.89;100.00;101853.53;4974044;28;20082;-92
2024/01/30 10:45:27;;;;;;;10.40;2.65;;;;;;;7.87;100.00;101864.72;4975219;28;20034;-95
2024/01/30 10:47:58;;;;;;;8.55;2.55;;;;;;;7.85;100.00;101866.47;4976371;28;20370;-91
2024/01/30 10:50:25;;;;;;;12.13;1.80;;;;;;;7.86;100.00;101866.47;4974224;28;20084;-92
2024/01/30 10:52:52;;;;;;;6.30;2.00;;;;;;;7.55;100.00;101861.16;4974016;28;20122;-91
2024/01/30 10:55:18;;;;;;;6.22;1.65;;;;;;;7.67;100.00;101863.47;4975476;28;20397;-92
2024/01/30 10:57:43;;;;;;;9.43;1.88;;;;;;;7.77;100.00;101871.81;4973983;28;20038;-93
2024/01/30 11:00:12;;;;;;;6.10;2.15;;;;;;;7.75;100.00;101881.28;4975596;28;20027;-91
2024/01/30 11:02:39;;;;;;;8.18;1.80;;;;;;;7.90;100.00;101895.50;4973460;28;20433;-90
2024/01/30 11:05:06;;;;;;;7.07;1.63;;;;;;;7.85;100.00;101897.34;4975000;28;20037;-92
2024/01/30 11:07:31;;;;;;;9.30;1.95;;;;;;;7.65;100.00;101892.63;4975143;28;20054;-90
2024/01/30 11:10:03;;;;;;;7.22;2.05;;;;;;;7.87;100.00;101895.56;4974852;28;20074;-92
2024/01/30 11:12:33;;;;;;;5.32;1.40;;;;;;;7.98;100.00;101892.78;4974107;28;20015;-95
2024/01/30 11:15:05;;;;;;;13.07;2.78;;;;;;;7.91;100.00;101892.06;4974119;28;20406;-93